.
WxDataArchive / Data Records for 2016-04-02
2016-04-01 April 2016 2016-04-03

Data Records for Saturday, 02 April 2016

Time	Temp	Chill	HIndex	Humid	Dewpt	 Wind 	HiWind	WindDir	Rain 	Barom
-----	----	-----	------	-----	-----	------	------	-------	-----	-----
00:00	37.6	37.6	37.6	87	34.1	0	2	315	0.00	29.757 
00:05	37.6	37.6	37.6	88	34.4	0	1	315	0.00	29.757 
00:10	37.6	37.6	37.6	88	34.4	0	1	315	0.00	29.757 
00:15	37.8	37.8	37.8	88	34.6	0	1	315	0.00	29.764 
00:20	37.8	37.8	37.8	88	34.6	0	1	315	0.00	29.764 
00:25	37.8	37.8	37.8	88	34.6	0	1	315	0.00	29.764 
00:30	37.8	37.8	37.8	89	34.9	0	1	315	0.00	29.769 
00:35	37.8	37.8	37.8	89	34.9	0	2	315	0.00	29.769 
00:40	37.8	37.8	37.8	89	34.9	0	2	315	0.00	29.769 
00:45	37.9	37.9	37.9	89	35.0	0	2	315	0.00	29.767 
00:50	37.9	37.9	37.9	89	35.0	0	2	315	0.00	29.767 
00:55	37.9	37.9	37.9	89	35.0	0	2	315	0.00	29.767 
01:00	37.9	37.9	37.9	89	35.0	0	2	315	0.00	29.757 
01:05	37.9	37.9	37.9	89	35.0	0	2	315	0.00	29.757 
01:10	37.9	37.9	37.9	89	35.0	1	2	315	0.00	29.757 
01:15	38.0	38.0	38.0	89	35.1	1	3	315	0.00	29.757 
01:20	38.0	38.0	38.0	89	35.1	0	2	292	0.00	29.757 
01:25	38.0	38.0	38.0	89	35.1	0	3	292	0.00	29.757 
01:30	38.0	38.0	38.0	89	35.1	0	2	292	0.00	29.761 
01:35	38.0	38.0	38.0	89	35.1	1	2	292	0.00	29.761 
01:40	38.2	38.2	38.2	89	35.2	0	2	292	0.00	29.761 
01:45	38.2	38.2	38.2	89	35.2	0	1	292	0.00	29.759 
01:50	38.2	38.2	38.2	89	35.2	1	3	292	0.00	29.759 
01:55	38.3	38.3	38.3	89	35.3	0	2	292	0.00	29.759 
02:00	38.3	38.3	38.3	89	35.3	0	2	292	0.00	29.755 
02:05	38.5	38.5	38.5	89	35.5	1	4	292	0.00	29.755 
02:10	38.5	38.5	38.5	88	35.3	1	3	292	0.00	29.755 
02:15	38.6	38.6	38.6	88	35.4	1	3	270	0.00	29.754 
02:20	38.8	38.8	38.8	87	35.3	1	4	270	0.00	29.754 
02:25	38.8	38.8	38.8	86	35.0	1	4	270	0.00	29.754 
02:30	38.9	38.9	38.9	84	34.5	1	4	270	0.00	29.748 
02:35	38.9	38.9	38.9	83	34.2	2	5	292	0.00	29.748 
02:40	38.9	38.9	38.9	81	33.6	1	5	315	0.00	29.748 
02:45	38.8	38.8	38.8	79	32.9	1	3	315	0.00	29.744 
02:50	38.6	38.6	38.6	78	32.3	1	4	270	0.00	29.744 
02:55	38.6	38.6	38.6	77	32.0	1	2	292	0.00	29.744 
03:00	38.5	38.5	38.5	75	31.3	2	4	292	0.00	29.739 
03:05	38.3	38.3	38.3	74	30.8	1	4	270	0.00	29.739 
03:10	38.2	38.2	38.2	73	30.3	1	5	270	0.00	29.739 
03:15	38.0	38.0	38.0	72	29.8	2	4	270	0.00	29.737 
03:20	37.9	37.9	37.9	70	29.0	1	4	270	0.00	29.737 
03:25	37.8	37.8	37.8	69	28.6	1	3	270	0.00	29.737 
03:30	37.6	37.6	37.6	69	28.4	1	2	270	0.00	29.727 
03:35	37.5	37.5	37.5	69	28.3	1	3	270	0.00	29.727 
03:40	37.3	37.3	37.3	68	27.7	1	3	270	0.00	29.727 
03:45	37.0	37.0	37.0	69	27.8	0	3	270	0.00	29.725 
03:50	36.9	36.9	36.9	67	27.0	1	4	270	0.00	29.725 
03:55	36.9	36.9	36.9	66	26.6	1	4	270	0.00	29.725 
04:00	36.8	36.8	36.8	66	26.5	1	3	270	0.00	29.721 
04:05	36.5	36.5	36.5	66	26.2	1	3	270	0.00	29.721 
04:10	36.3	36.3	36.3	66	26.0	0	3	270	0.00	29.721 
04:15	36.2	36.2	36.2	65	25.6	1	3	270	0.00	29.721 
04:20	36.0	36.0	36.0	65	25.4	1	3	270	0.00	29.721 
04:25	36.0	36.0	36.0	65	25.4	1	4	270	0.00	29.721 
04:30	35.9	35.9	35.9	65	25.3	1	4	270	0.00	29.714 
04:35	35.9	35.9	35.9	64	24.9	0	2	248	0.00	29.714 
04:40	35.8	35.8	35.8	64	24.8	0	2	248	0.00	29.714 
04:45	35.6	35.6	35.6	64	24.6	1	3	248	0.00	29.709 
04:50	35.6	35.6	35.6	63	24.3	1	3	248	0.00	29.709 
04:55	35.6	35.6	35.6	64	24.6	1	3	248	0.00	29.709 
05:00	35.5	35.5	35.5	64	24.5	1	4	270	0.00	29.707 
05:05	35.3	35.3	35.3	64	24.4	0	2	270	0.00	29.707 
05:10	35.5	35.5	35.5	64	24.5	1	4	270	0.00	29.707 
05:15	35.3	35.3	35.3	65	24.7	1	3	270	0.00	29.703 
05:20	35.3	35.3	35.3	66	25.1	0	2	248	0.00	29.703 
05:25	35.2	35.2	35.2	67	25.4	1	3	248	0.00	29.703 
05:30	35.2	35.2	35.2	68	25.7	1	3	248	0.00	29.703 
05:35	35.0	35.0	35.0	68	25.5	1	3	248	0.00	29.703 
05:40	35.0	35.0	35.0	69	25.9	1	3	248	0.00	29.703 
05:45	34.9	34.9	34.9	70	26.1	1	4	270	0.00	29.696 
05:50	34.9	34.9	34.9	70	26.1	1	5	315	0.00	29.696 
05:55	34.7	34.7	34.7	70	25.9	1	3	270	0.00	29.696 
06:00	34.6	34.6	34.6	70	25.8	1	5	248	0.00	29.692 
06:05	34.6	34.6	34.6	70	25.8	0	2	248	0.00	29.692 
06:10	34.3	34.3	34.3	70	25.5	1	3	248	0.00	29.692 
06:15	34.1	34.1	34.1	69	25.0	1	4	248	0.00	29.692 
06:20	34.0	34.0	34.0	69	24.9	2	7	270	0.00	29.692 
06:25	34.0	34.0	34.0	68	24.6	2	5	248	0.00	29.692 
06:30	33.8	33.8	33.8	68	24.4	1	4	248	0.00	29.691 
06:35	33.7	33.7	33.7	68	24.3	1	3	248	0.00	29.691 
06:40	33.5	33.5	33.5	68	24.1	1	3	248	0.00	29.691 
06:45	33.4	33.4	33.4	68	24.0	1	5	248	0.00	29.693 
06:50	33.2	33.2	33.2	68	23.8	1	4	248	0.00	29.693 
06:55	33.1	33.1	33.1	68	23.7	1	3	270	0.00	29.693 
07:00	33.1	33.1	33.1	68	23.7	2	6	248	0.00	29.684 
07:05	32.9	32.9	32.9	68	23.5	1	3	248	0.00	29.684 
07:10	32.9	32.9	32.9	68	23.5	1	3	248	0.00	29.684 
07:15	32.8	32.8	32.8	68	23.4	1	4	248	0.00	29.680 
07:20	32.8	32.8	32.8	68	23.4	1	4	270	0.00	29.680 
07:25	32.8	32.8	32.8	69	23.8	1	4	248	0.00	29.680 
07:30	32.7	32.7	32.7	69	23.7	0	2	248	0.00	29.679 
07:35	32.7	32.7	32.7	69	23.7	1	4	248	0.00	29.679 
07:40	32.7	32.7	32.7	69	23.7	1	4	248	0.00	29.679 
07:45	32.7	32.7	32.7	69	23.7	1	3	248	0.00	29.675 
07:50	32.8	32.8	32.8	69	23.8	1	3	248	0.00	29.675 
07:55	32.8	32.8	32.8	69	23.8	1	4	248	0.00	29.675 
08:00	32.8	32.8	32.8	69	23.8	2	5	270	0.00	29.678 
08:05	32.9	32.9	32.9	69	23.9	2	4	270	0.00	29.678 
08:10	32.9	32.9	32.9	68	23.5	2	5	248	0.00	29.678 
08:15	33.1	33.1	33.1	67	23.4	2	5	248	0.00	29.679 
08:20	33.2	33.2	33.2	66	23.1	1	4	248	0.00	29.679 
08:25	33.4	33.4	33.4	65	22.9	3	6	270	0.00	29.679 
08:30	33.4	33.4	33.4	63	22.2	2	4	270	0.00	29.675 
08:35	33.2	33.2	33.2	62	21.6	2	5	292	0.00	29.675 
08:40	33.1	33.1	33.1	62	21.5	2	6	248	0.00	29.675 
08:45	33.5	33.5	33.5	62	21.9	2	4	248	0.00	29.667 
08:50	33.8	33.8	33.8	61	21.8	2	4	248	0.00	29.667 
08:55	33.7	33.7	33.7	60	21.3	2	6	248	0.00	29.667 
09:00	33.5	33.5	33.5	59	20.7	2	5	270	0.00	29.674 
09:05	33.7	33.7	33.7	60	21.3	1	6	248	0.00	29.674 
09:10	34.0	34.0	34.0	59	21.2	2	7	270	0.00	29.674 
09:15	34.4	34.4	34.4	58	21.2	2	7	248	0.00	29.665 
09:20	34.7	34.7	34.7	57	21.0	2	5	248	0.00	29.665 
09:25	34.9	34.9	34.9	58	21.6	2	5	248	0.00	29.665 
09:30	35.0	35.0	35.0	57	21.3	2	5	248	0.00	29.660 
09:35	35.3	35.3	35.3	55	20.8	3	7	270	0.00	29.660 
09:40	35.3	35.3	35.3	52	19.5	3	11	248	0.00	29.660 
09:45	35.6	35.6	35.6	51	19.3	3	6	248	0.00	29.648 
09:50	36.0	36.0	36.0	49	18.7	3	7	270	0.00	29.648 
09:55	36.5	36.5	36.5	50	19.6	2	6	248	0.00	29.648 
10:00	36.9	36.9	36.9	47	18.6	3	6	270	0.00	29.638 
10:05	36.9	36.9	36.9	45	17.6	3	11	248	0.00	29.638 
10:10	36.8	36.8	36.8	47	18.5	3	6	270	0.00	29.638 
10:15	36.8	36.8	36.8	50	19.9	3	6	270	0.00	29.630 
10:20	36.9	36.9	36.9	50	20.0	2	7	248	0.00	29.630 
10:25	36.9	36.9	36.9	51	20.5	3	6	248	0.00	29.630 
10:30	37.0	37.0	37.0	53	21.5	1	4	248	0.00	29.616 
10:35	37.0	37.0	37.0	51	20.6	2	9	248	0.00	29.616 
10:40	37.0	37.0	37.0	51	20.6	3	7	248	0.00	29.616 
10:45	37.2	37.2	37.2	52	21.2	1	5	248	0.00	29.603 
10:50	37.5	37.5	37.5	52	21.5	2	7	248	0.00	29.603 
10:55	38.0	38.0	38.0	56	23.7	1	7	248	0.00	29.603 
11:00	38.5	38.5	38.5	54	23.3	2	10	270	0.00	29.586 
11:05	38.3	38.3	38.3	54	23.1	2	6	248	0.00	29.586 
11:10	38.2	38.2	38.2	54	23.0	2	6	248	0.00	29.586 
11:15	38.0	38.0	38.0	55	23.3	3	7	248	0.00	29.583 
11:20	38.0	38.0	38.0	56	23.7	3	9	248	0.00	29.583 
11:25	38.5	38.5	38.5	58	25.0	1	5	270	0.00	29.583 
11:30	38.6	38.6	38.6	56	24.3	3	9	248	0.00	29.575 
11:35	38.3	35.4	38.3	56	24.0	4	10	248	0.00	29.575 
11:40	38.2	38.2	38.2	56	23.9	3	10	248	0.00	29.575 
11:45	38.0	38.0	38.0	57	24.1	3	7	248	0.00	29.570 
11:50	37.6	34.5	37.6	60	25.0	4	7	248	0.00	29.570 
11:55	37.3	37.3	37.3	63	25.9	3	11	248	0.00	29.570 
12:00	37.0	37.0	37.0	67	27.1	2	6	248	0.00	29.557 
12:05	36.8	36.8	36.8	72	28.6	3	10	248	0.00	29.557 
12:10	36.5	36.5	36.5	75	29.3	2	6	248	0.00	29.557 
12:15	36.3	36.3	36.3	77	29.8	2	5	248	0.00	29.541 
12:20	36.3	36.3	36.3	79	30.4	2	5	248	0.00	29.541 
12:25	36.2	36.2	36.2	81	30.9	2	7	248	0.00	29.541 
12:30	36.2	36.2	36.2	81	30.9	2	7	248	0.00	29.527 
12:35	36.3	36.3	36.3	82	31.3	2	5	248	0.00	29.527 
12:40	36.2	36.2	36.2	81	30.9	2	10	248	0.00	29.527 
12:45	36.3	36.3	36.3	81	31.0	2	6	248	0.00	29.519 
12:50	36.3	36.3	36.3	80	30.7	2	7	248	0.00	29.519 
12:55	36.3	36.3	36.3	81	31.0	1	4	270	0.00	29.519 
13:00	36.2	36.2	36.2	81	30.9	2	7	248	0.00	29.509 
13:05	36.3	36.3	36.3	82	31.3	1	4	248	0.00	29.509 
13:10	36.5	36.5	36.5	83	31.8	1	3	225	0.00	29.509 
13:15	36.5	36.5	36.5	83	31.8	1	6	248	0.00	29.503 
13:20	36.3	36.3	36.3	84	31.9	2	10	248	0.00	29.503 
13:25	36.2	36.2	36.2	84	31.8	2	7	248	0.01	29.503 
13:30	36.0	36.0	36.0	85	31.9	1	5	248	0.00	29.495 
13:35	36.0	36.0	36.0	86	32.2	2	9	248	0.00	29.495 
13:40	36.2	36.2	36.2	86	32.4	1	4	248	0.00	29.495 
13:45	36.2	36.2	36.2	87	32.7	1	4	248	0.01	29.491 
13:50	36.3	36.3	36.3	87	32.8	1	3	248	0.00	29.491 
13:55	36.2	36.2	36.2	87	32.7	1	5	248	0.01	29.491 
14:00	35.9	35.9	35.9	87	32.4	2	5	248	0.00	29.493 
14:05	35.8	35.8	35.8	88	32.6	3	9	248	0.01	29.493 
14:10	36.0	36.0	36.0	89	33.1	1	5	270	0.00	29.493 
14:15	36.3	36.3	36.3	89	33.4	2	4	248	0.00	29.478 
14:20	35.8	32.5	35.8	88	32.6	4	10	248	0.00	29.478 
14:25	34.7	34.7	34.7	88	31.5	3	6	270	0.00	29.478 
14:30	34.1	34.1	34.1	88	30.9	1	6	248	0.00	29.476 
14:35	34.6	34.6	34.6	91	32.2	1	5	248	0.01	29.476 
14:40	35.8	35.8	35.8	92	33.7	1	4	248	0.01	29.476 
14:45	36.2	36.2	36.2	91	33.8	1	5	248	0.00	29.466 
14:50	35.9	35.9	35.9	91	33.5	2	6	270	0.00	29.466 
14:55	35.2	35.2	35.2	90	32.6	3	9	248	0.01	29.466 
15:00	34.9	34.9	34.9	91	32.5	2	6	292	0.01	29.460 
15:05	35.8	32.5	35.8	92	33.7	4	10	270	0.00	29.460 
15:10	36.0	31.0	36.0	91	33.6	6	13	270	0.00	29.460 
15:15	35.6	29.2	35.6	89	32.7	8	19	270	0.00	29.479 
15:20	35.2	30.0	35.2	89	32.3	6	11	270	0.00	29.479 
15:25	35.2	30.8	35.2	88	32.0	5	9	270	0.00	29.479 
15:30	35.8	31.5	35.8	88	32.6	5	9	270	0.00	29.478 
15:35	36.5	31.6	36.5	87	33.0	6	14	270	0.00	29.478 
15:40	36.0	31.0	36.0	84	31.6	6	11	270	0.00	29.478 
15:45	36.0	31.8	36.0	84	31.6	5	12	270	0.00	29.482 
15:50	35.9	31.7	35.9	83	31.2	5	11	270	0.00	29.482 
15:55	36.2	32.0	36.2	81	30.9	5	10	270	0.00	29.482 
16:00	36.9	33.7	36.9	80	31.3	4	9	270	0.00	29.476 
16:05	37.8	34.8	37.8	79	31.9	4	10	270	0.00	29.476 
16:10	38.3	34.5	38.3	76	31.4	5	7	270	0.00	29.476 
16:15	38.5	34.7	38.5	73	30.6	5	14	270	0.00	29.478 
16:20	38.8	35.9	38.8	70	29.9	4	10	270	0.00	29.478 
16:25	38.5	33.3	38.5	62	26.6	7	12	270	0.00	29.478 
16:30	37.5	32.8	37.5	70	28.6	6	12	270	0.00	29.495 
16:35	35.8	31.5	35.8	79	29.9	5	11	270	0.00	29.495 
16:40	35.2	35.2	35.2	83	30.6	3	9	270	0.00	29.495 
16:45	35.6	32.2	35.6	83	31.0	4	7	270	0.00	29.496 
16:50	35.9	31.7	35.9	79	30.0	5	10	270	0.00	29.496 
16:55	36.2	32.0	36.2	77	29.7	5	12	270	0.00	29.496 
17:00	36.6	31.7	36.6	73	28.8	6	12	270	0.00	29.509 
17:05	36.8	31.9	36.8	71	28.3	6	10	270	0.00	29.509 
17:10	36.6	31.7	36.6	73	28.8	6	11	270	0.00	29.509 
17:15	36.3	31.4	36.3	75	29.1	6	12	270	0.00	29.529 
17:20	36.0	31.0	36.0	77	29.5	6	11	292	0.00	29.529 
17:25	35.8	30.8	35.8	78	29.6	6	11	292	0.00	29.529 
17:30	35.8	29.5	35.8	77	29.3	8	18	270	0.00	29.547 
17:35	35.6	30.5	35.6	72	27.5	6	17	292	0.00	29.547 
17:40	36.0	36.0	36.0	72	27.9	0	4	292	0.00	29.547 
17:45	36.0	36.0	36.0	68	26.5	2	14	292	0.00	29.574 
17:50	36.0	36.0	36.0	69	26.8	0	2	292	0.00	29.574 
17:55	35.9	35.9	35.9	69	26.7	0	3	292	0.00	29.574 
18:00	35.6	35.6	35.6	68	26.1	0	5	292	0.00	29.599 
18:05	35.5	35.5	35.5	67	25.6	0	3	292	0.00	29.599 
18:10	35.5	35.5	35.5	67	25.6	0	4	292	0.00	29.599 
18:15	35.8	35.8	35.8	66	25.6	0	3	292	0.00	29.613 
18:20	36.0	36.0	36.0	64	25.0	0	5	292	0.00	29.613 
18:25	36.0	36.0	36.0	61	23.9	2	10	292	0.00	29.613 
18:30	35.8	31.5	35.8	60	23.3	5	16	292	0.00	29.633 
18:35	35.6	31.3	35.6	60	23.1	5	13	292	0.00	29.633 
18:40	35.3	31.0	35.3	61	23.2	5	14	292	0.00	29.633 
18:45	34.9	30.5	34.9	67	25.1	5	16	292	0.00	29.657 
18:50	34.6	30.1	34.6	70	25.8	5	11	292	0.00	29.657 
18:55	34.4	29.1	34.4	69	25.3	6	17	270	0.00	29.657 
19:00	34.3	30.7	34.3	69	25.2	4	18	292	0.00	29.680 
19:05	34.3	29.8	34.3	67	24.5	5	14	292	0.00	29.680 
19:10	34.4	34.4	34.4	65	23.9	3	13	270	0.00	29.680 
19:15	34.6	34.6	34.6	65	24.1	3	11	292	0.00	29.698 
19:20	34.7	34.7	34.7	64	23.8	2	11	292	0.00	29.698 
19:25	34.9	34.9	34.9	62	23.2	3	11	292	0.00	29.698 
19:30	34.7	31.2	34.7	59	21.9	4	11	292	0.00	29.715 
19:35	34.4	29.9	34.4	59	21.6	5	12	270	0.00	29.715 
19:40	34.3	34.3	34.3	60	21.9	3	9	292	0.00	29.715 
19:45	34.0	30.4	34.0	60	21.6	4	15	292	0.00	29.736 
19:50	33.7	33.7	33.7	59	20.9	3	12	292	0.00	29.736 
19:55	33.5	29.8	33.5	60	21.1	4	14	270	0.00	29.736 
20:00	33.4	28.7	33.4	60	21.0	5	12	292	0.00	29.752 
20:05	33.2	28.5	33.2	59	20.4	5	15	292	0.00	29.752 
20:10	33.2	33.2	33.2	59	20.4	2	7	292	0.00	29.752 
20:15	33.2	29.5	33.2	58	20.0	4	15	292	0.00	29.770 
20:20	33.1	33.1	33.1	61	21.1	2	5	270	0.00	29.770 
20:25	32.8	32.8	32.8	66	22.7	3	6	270	0.00	29.770 
20:30	32.4	32.4	32.4	70	23.7	2	5	270	0.00	29.786 
20:35	32.1	32.1	32.1	72	24.1	2	5	270	0.00	29.786 
20:40	31.8	31.8	31.8	72	23.8	2	7	292	0.00	29.786 
20:45	31.8	31.8	31.8	70	23.2	2	7	292	0.00	29.805 
20:50	31.9	31.9	31.9	69	22.9	2	9	292	0.00	29.805 
20:55	31.9	31.9	31.9	67	22.2	3	11	292	0.00	29.805 
21:00	31.8	31.8	31.8	68	22.5	2	10	292	0.00	29.818 
21:05	31.6	31.6	31.6	69	22.6	1	7	292	0.00	29.818 
21:10	31.3	31.3	31.3	69	22.3	1	5	292	0.00	29.818 
21:15	31.2	31.2	31.2	69	22.2	1	6	292	0.00	29.835 
21:20	31.2	31.2	31.2	69	22.2	2	7	270	0.00	29.835 
21:25	31.0	31.0	31.0	69	22.0	3	9	292	0.00	29.835 
21:30	31.0	31.0	31.0	69	22.0	2	6	292	0.00	29.854 
21:35	31.0	31.0	31.0	70	22.4	3	6	292	0.00	29.854 
21:40	31.0	31.0	31.0	71	22.7	2	9	292	0.00	29.854 
21:45	30.7	30.7	30.7	73	23.1	3	9	270	0.00	29.865 
21:50	30.4	26.2	30.4	75	23.4	4	7	270	0.00	29.865 
21:55	30.1	30.1	30.1	77	23.8	3	5	270	0.00	29.865 
22:00	30.0	30.0	30.0	78	24.0	3	6	292	0.00	29.879 
22:05	29.8	29.8	29.8	79	24.1	3	5	270	0.00	29.879 
22:10	29.7	29.7	29.7	79	24.0	3	6	270	0.00	29.879 
22:15	29.7	29.7	29.7	79	24.0	3	6	292	0.00	29.892 
22:20	29.8	29.8	29.8	78	23.8	3	9	292	0.00	29.892 
22:25	30.0	30.0	30.0	77	23.7	2	7	270	0.00	29.892 
22:30	30.1	30.1	30.1	76	23.5	2	6	292	0.00	29.897 
22:35	30.1	30.1	30.1	74	22.8	2	4	292	0.00	29.897 
22:40	30.1	30.1	30.1	73	22.5	2	9	292	0.00	29.897 
22:45	30.1	25.9	30.1	71	21.9	4	10	292	0.00	29.909 
22:50	30.1	30.1	30.1	71	21.9	2	6	292	0.00	29.909 
22:55	30.1	30.1	30.1	71	21.9	3	7	292	0.00	29.909 
23:00	30.0	30.0	30.0	70	21.4	3	10	292	0.00	29.916 
23:05	30.0	30.0	30.0	70	21.4	2	7	270	0.00	29.916 
23:10	29.8	29.8	29.8	71	21.6	3	9	270	0.00	29.916 
23:15	29.7	29.7	29.7	72	21.8	3	6	292	0.00	29.927 
23:20	29.5	29.5	29.5	73	21.9	2	11	270	0.00	29.927 
23:25	29.4	29.4	29.4	73	21.8	2	5	292	0.00	29.927 
23:30	29.3	29.3	29.3	73	21.7	2	9	292	0.00	29.936 
23:35	29.3	29.3	29.3	73	21.7	3	5	292	0.00	29.936 
23:40	29.3	29.3	29.3	73	21.7	3	7	270	0.00	29.936 
23:45	29.3	29.3	29.3	73	21.7	1	5	292	0.00	29.942 
23:50	29.1	29.1	29.1	74	21.9	1	3	292	0.00	29.942 
23:55	29.0	29.0	29.0	75	22.1	2	6	270	0.00	29.942 

CoCoRaHS
IN-AL-39
A2 Web Hosting
Creative Commons License
GoDaddy
search engine by freefind advanced

loaded 2018-11-20 06:17:59 • last modified 2010-11-18 10:43:29
Privacy PolicyDisclaimer
• wx.awcolley.com is powered by PmWiki v.2002016 •
• all content (unless otherwise noted) © 2018 A W Colley